Time;durP1;ratioP1;P1;durP2;ratioP2;P2;SDS_P1;SDS_P2;PMS_P1;PMS_P2;Temp;Humidity;BMP_temperature;BMP_pressure;BME280_temperature;BME280_humidity;BME280_pressure;Samples;Min_cycle;Max_cycle;Signal;HPM_P1;HPM_P2
2022/09/06 00:01:16;;;;;;;6.83;2.90;;;24.40;45.70;;;;;;5069495;28;20476;-87
2022/09/06 00:03:44;;;;;;;4.87;3.40;;;24.40;45.80;;;;;;5068324;28;20484;-87
2022/09/06 00:06:14;;;;;;;6.30;2.87;;;24.40;45.90;;;;;;5067732;28;20441;-88
2022/09/06 00:08:42;;;;;;;3.40;3.10;;;24.40;46.00;;;;;;5071290;28;20448;-90
2022/09/06 00:11:10;;;;;;;4.20;2.50;;;24.40;45.90;;;;;;5066323;28;20450;-87
2022/09/06 00:13:37;;;;;;;8.33;2.27;;;24.30;45.70;;;;;;5069688;28;20448;-90
2022/09/06 00:16:06;;;;;;;3.63;2.97;;;24.30;45.70;;;;;;5065141;28;20455;-88
2022/09/06 00:18:34;;;;;;;3.70;2.67;;;24.30;45.50;;;;;;5063347;28;20464;-87
2022/09/06 00:21:01;;;;;;;3.00;2.70;;;24.30;45.90;;;;;;5067341;28;20481;-87
2022/09/06 00:23:28;;;;;;;2.90;2.70;;;24.20;45.90;;;;;;5065874;28;20448;-87
2022/09/06 00:26:02;;;;;;;3.83;3.00;;;24.20;45.90;;;;;;5049405;28;20489;-88
2022/09/06 00:28:29;;;;;;;3.13;2.83;;;24.20;45.90;;;;;;5049813;28;20469;-88
2022/09/06 00:30:56;;;;;;;3.70;3.00;;;24.20;46.20;;;;;;5069200;28;20970;-87
2022/09/06 00:33:23;;;;;;;4.30;2.70;;;24.10;46.20;;;;;;5050184;28;20452;-89
2022/09/06 00:35:58;;;;;;;2.70;2.50;;;24.10;46.10;;;;;;5032324;28;20456;-87
2022/09/06 00:38:25;;;;;;;5.40;3.00;;;24.10;46.00;;;;;;5047984;28;20470;-87
2022/09/06 00:40:52;;;;;;;3.03;2.80;;;24.00;46.10;;;;;;5066717;28;20906;-87
2022/09/06 00:43:19;;;;;;;4.07;2.80;;;24.00;45.80;;;;;;5071497;28;20452;-86
2022/09/06 00:45:46;;;;;;;2.87;2.50;;;23.90;45.80;;;;;;5050459;28;21186;-88
2022/09/06 00:48:14;;;;;;;3.00;2.80;;;23.90;46.60;;;;;;5048548;28;20471;-87
2022/09/06 00:50:42;;;;;;;4.00;2.90;;;23.90;47.00;;;;;;5050705;28;20449;-87
2022/09/06 00:53:11;;;;;;;2.80;2.40;;;23.90;47.10;;;;;;5053951;28;20460;-86
2022/09/06 00:55:40;;;;;;;2.97;2.77;;;23.80;47.00;;;;;;5070054;28;20460;-87
2022/09/06 00:58:07;;;;;;;3.17;2.80;;;23.80;47.10;;;;;;5045596;28;20564;-87
2022/09/06 01:00:34;;;;;;;3.00;2.80;;;23.90;47.40;;;;;;5062207;28;20722;-88
2022/09/06 01:03:01;;;;;;;9.17;3.13;;;23.80;47.30;;;;;;5051073;28;20437;-87
2022/09/06 01:05:38;;;;;;;5.87;3.03;;;23.80;47.40;;;;;;5066785;28;20448;-87
2022/09/06 01:08:12;;;;;;;2.93;2.73;;;23.80;47.20;;;;;;5027286;28;20828;-88
2022/09/06 01:10:55;;;;;;;3.00;2.80;;;23.80;47.20;;;;;;5067124;28;20495;-90
2022/09/06 01:13:34;;;;;;;3.30;3.00;;;23.70;47.10;;;;;;5065344;28;20472;-87
2022/09/06 01:16:10;;;;;;;3.63;3.33;;;23.70;47.10;;;;;;5039561;28;20452;-87
2022/09/06 01:18:55;;;;;;;2.97;2.67;;;23.70;47.50;;;;;;5052991;28;20499;-91
2022/09/06 01:21:35;;;;;;;5.00;2.97;;;23.70;47.90;;;;;;5065672;28;20966;-87
2022/09/06 01:24:47;;;;;;;3.10;2.90;;;23.70;48.10;;;;;;5050711;28;20939;-87
2022/09/06 01:27:50;;;;;;;5.20;3.00;;;23.70;48.20;;;;;;5034757;28;20858;-88
2022/09/06 01:30:19;;;;;;;2.80;2.20;;;23.60;47.70;;;;;;5066624;28;20459;-89
2022/09/06 01:32:53;;;;;;;3.33;3.00;;;23.60;47.60;;;;;;5033477;28;20453;-87
2022/09/06 01:35:27;;;;;;;3.23;2.93;;;23.60;47.60;;;;;;5048552;28;20437;-87
2022/09/06 01:37:55;;;;;;;3.60;3.10;;;23.60;48.20;;;;;;5066634;28;20472;-88
2022/09/06 01:40:22;;;;;;;10.77;3.50;;;23.60;47.70;;;;;;5031396;28;20933;-87
2022/09/06 01:42:53;;;;;;;3.80;3.00;;;23.60;47.80;;;;;;5048762;28;20551;-87
2022/09/06 01:45:27;;;;;;;3.30;2.90;;;23.60;48.00;;;;;;5066177;28;20445;-86
2022/09/06 01:48:08;;;;;;;3.17;2.93;;;23.60;48.40;;;;;;5053364;28;20493;-88
2022/09/06 01:50:50;;;;;;;3.30;3.00;;;23.60;48.50;;;;;;5056285;28;20448;-89
2022/09/06 01:53:31;;;;;;;3.00;2.73;;;23.50;48.60;;;;;;5065655;28;20448;-87
2022/09/06 01:56:06;;;;;;;5.27;2.60;;;23.50;48.90;;;;;;5062827;28;20468;-88
2022/09/06 01:58:52;;;;;;;3.30;3.00;;;23.50;48.90;;;;;;5020507;28;20490;-85
2022/09/06 02:01:27;;;;;;;5.30;2.50;;;23.50;48.90;;;;;;5028153;28;20476;-87
2022/09/06 02:04:02;;;;;;;3.37;3.07;;;23.50;49.00;;;;;;5065170;28;20452;-86
2022/09/06 02:06:33;;;;;;;6.40;3.60;;;23.50;49.10;;;;;;5062545;28;20467;-87
2022/09/06 02:09:04;;;;;;;3.20;2.87;;;23.50;49.40;;;;;;5048398;28;21058;-86
2022/09/06 02:11:37;;;;;;;4.03;3.23;;;23.40;49.40;;;;;;5046437;28;21310;-87
2022/09/06 02:14:10;;;;;;;3.60;2.93;;;23.40;49.40;;;;;;5031778;28;20445;-87
2022/09/06 02:16:41;;;;;;;5.40;2.73;;;23.40;48.90;;;;;;5035521;28;20457;-87
2022/09/06 02:19:13;;;;;;;3.30;3.10;;;23.40;48.90;;;;;;5046868;28;20901;-87
2022/09/06 02:21:44;;;;;;;4.07;3.03;;;23.40;48.20;;;;;;5033809;28;20458;-87
2022/09/06 02:24:15;;;;;;;7.13;3.10;;;23.30;48.40;;;;;;5046971;28;20451;-87
2022/09/06 02:26:44;;;;;;;2.87;2.60;;;23.30;49.30;;;;;;5062610;28;20468;-87
2022/09/06 02:29:13;;;;;;;2.83;2.63;;;23.20;49.20;;;;;;5061130;28;20449;-88
2022/09/06 02:31:45;;;;;;;3.70;2.93;;;23.20;49.10;;;;;;5044788;28;20453;-87
2022/09/06 02:34:17;;;;;;;4.43;3.37;;;23.20;49.20;;;;;;5049655;28;20520;-87
2022/09/06 02:36:45;;;;;;;3.37;2.80;;;23.20;49.30;;;;;;5044512;28;20501;-88
2022/09/06 02:39:12;;;;;;;3.43;3.13;;;23.20;49.20;;;;;;5050016;28;20514;-88
2022/09/06 02:41:40;;;;;;;4.47;3.00;;;23.20;49.00;;;;;;5067918;28;20468;-87
2022/09/06 02:44:07;;;;;;;5.10;3.00;;;23.20;48.90;;;;;;5067049;28;20437;-87
2022/09/06 02:46:36;;;;;;;8.23;3.20;;;23.20;48.90;;;;;;5062842;28;20460;-89
2022/09/06 02:49:03;;;;;;;3.03;2.73;;;23.20;48.90;;;;;;5068117;28;20449;-87
2022/09/06 02:51:29;;;;;;;3.10;2.90;;;23.20;49.10;;;;;;5047732;28;20810;-87
2022/09/06 02:53:56;;;;;;;3.60;3.20;;;23.10;49.30;;;;;;5067407;28;20453;-90
2022/09/06 02:56:23;;;;;;;5.40;3.20;;;23.10;49.40;;;;;;5044530;28;20461;-87
2022/09/06 02:58:50;;;;;;;2.90;2.70;;;23.10;49.60;;;;;;5031507;28;21558;-89
2022/09/06 03:01:17;;;;;;;5.03;3.93;;;23.10;49.60;;;;;;5060544;28;20457;-87
2022/09/06 03:03:46;;;;;;;3.03;2.73;;;23.10;49.80;;;;;;5063636;28;20443;-86
2022/09/06 03:06:13;;;;;;;4.30;3.53;;;23.10;50.10;;;;;;5047897;28;20452;-87
2022/09/06 03:08:40;;;;;;;6.03;3.30;;;22.70;51.70;;;;;;5062039;28;20475;-88
2022/09/06 03:11:07;;;;;;;4.13;3.73;;;21.70;52.90;;;;;;5045221;28;20456;-87
2022/09/06 03:13:34;;;;;;;8.57;3.77;;;21.60;53.20;;;;;;5037874;28;20449;-90
2022/09/06 03:16:01;;;;;;;5.40;3.63;;;21.70;52.40;;;;;;5036338;28;21265;-88
2022/09/06 03:18:29;;;;;;;4.10;3.70;;;21.80;51.90;;;;;;5039890;28;20466;-88
2022/09/06 03:20:58;;;;;;;4.07;3.67;;;21.60;52.30;;;;;;5040664;28;20453;-87
2022/09/06 03:23:29;;;;;;;3.60;3.30;;;21.70;52.20;;;;;;5064023;28;20473;-88
2022/09/06 03:25:56;;;;;;;4.07;3.77;;;22.00;51.60;;;;;;5046394;28;20882;-87
2022/09/06 03:28:24;;;;;;;3.03;2.83;;;22.10;51.30;;;;;;5065259;28;20468;-87
2022/09/06 03:30:52;;;;;;;4.10;3.00;;;22.20;50.70;;;;;;5046670;28;20467;-88
2022/09/06 03:33:20;;;;;;;3.67;3.13;;;22.20;51.00;;;;;;5061749;28;20449;-87
2022/09/06 03:35:49;;;;;;;3.67;3.37;;;22.20;50.70;;;;;;5045335;28;20444;-88
2022/09/06 03:38:17;;;;;;;5.77;3.53;;;22.40;50.70;;;;;;5048303;28;20994;-88
2022/09/06 03:40:45;;;;;;;6.20;3.23;;;22.20;50.60;;;;;;5063070;28;20452;-87
2022/09/06 03:43:13;;;;;;;3.23;2.93;;;22.00;51.00;;;;;;5064918;28;20477;-88
2022/09/06 03:45:40;;;;;;;3.40;2.63;;;22.20;50.90;;;;;;5065444;28;20451;-88
2022/09/06 03:48:07;;;;;;;4.10;3.03;;;22.40;50.40;;;;;;5044400;28;20530;-87
2022/09/06 03:50:34;;;;;;;8.60;2.80;;;22.50;50.40;;;;;;5046732;28;20460;-87
2022/09/06 03:53:01;;;;;;;3.50;3.10;;;22.70;49.90;;;;;;5065166;28;20532;-88
2022/09/06 03:55:29;;;;;;;5.13;3.40;;;22.90;49.70;;;;;;5048287;28;20448;-88
2022/09/06 03:57:56;;;;;;;3.07;2.87;;;22.80;49.80;;;;;;5016311;28;20476;-88
2022/09/06 04:00:23;;;;;;;3.83;3.53;;;22.90;50.10;;;;;;5047639;28;20964;-88
2022/09/06 04:02:50;;;;;;;3.70;3.30;;;23.00;50.30;;;;;;5064783;28;20877;-87
2022/09/06 04:05:17;;;;;;;13.73;3.90;;;23.00;50.70;;;;;;5033460;28;20447;-88
2022/09/06 04:07:44;;;;;;;3.73;3.40;;;23.00;50.90;;;;;;5046401;28;20570;-88
2022/09/06 04:10:11;;;;;;;3.50;3.20;;;23.10;50.80;;;;;;5048930;28;20786;-88
2022/09/06 04:12:40;;;;;;;5.10;3.23;;;23.10;50.90;;;;;;5066443;28;21154;-86
2022/09/06 04:15:07;;;;;;;4.73;3.23;;;23.20;50.70;;;;;;5029554;28;20975;-89
2022/09/06 04:17:34;;;;;;;3.20;3.00;;;23.20;50.20;;;;;;5062947;28;20503;-88
2022/09/06 04:20:02;;;;;;;3.03;2.83;;;23.30;50.00;;;;;;5046747;28;20440;-87
2022/09/06 04:22:29;;;;;;;4.90;3.20;;;23.20;49.00;;;;;;5063844;28;20562;-87
2022/09/06 04:24:57;;;;;;;4.20;3.40;;;23.10;49.10;;;;;;5061513;28;20903;-88
2022/09/06 04:27:24;;;;;;;3.30;3.10;;;23.10;49.40;;;;;;5049370;28;20461;-87
2022/09/06 04:29:52;;;;;;;4.77;3.60;;;23.10;49.20;;;;;;5032074;28;20444;-87
2022/09/06 04:32:19;;;;;;;4.20;3.30;;;23.10;49.30;;;;;;5022850;28;20437;-87
2022/09/06 04:34:46;;;;;;;3.70;3.40;;;23.10;49.90;;;;;;5046833;28;20455;-88
2022/09/06 04:37:16;;;;;;;3.00;2.80;;;23.20;49.80;;;;;;5046658;28;20472;-88
2022/09/06 04:39:43;;;;;;;4.70;4.30;;;23.30;49.90;;;;;;5031245;28;20464;-87
2022/09/06 04:42:10;;;;;;;4.97;4.30;;;23.30;49.90;;;;;;5045993;28;20859;-87
2022/09/06 04:44:37;;;;;;;4.07;3.70;;;23.30;49.80;;;;;;5045138;28;20559;-88
2022/09/06 04:47:09;;;;;;;3.80;3.40;;;23.30;49.20;;;;;;5059939;28;20471;-87
2022/09/06 04:49:36;;;;;;;5.30;3.57;;;23.30;49.00;;;;;;5061991;28;20441;-88
2022/09/06 04:52:03;;;;;;;4.13;3.13;;;23.30;48.50;;;;;;5058894;28;20446;-89
2022/09/06 04:54:30;;;;;;;3.37;2.97;;;23.30;48.50;;;;;;5025651;28;20881;-88
2022/09/06 04:56:57;;;;;;;4.43;3.23;;;23.30;48.20;;;;;;5045147;28;21058;-89
2022/09/06 04:59:24;;;;;;;4.67;3.27;;;23.30;48.60;;;;;;5062756;28;20456;-88
2022/09/06 05:01:51;;;;;;;4.87;3.40;;;23.30;48.50;;;;;;5044116;28;20471;-90
2022/09/06 05:04:19;;;;;;;4.33;3.10;;;23.30;48.40;;;;;;5020472;28;21226;-88
2022/09/06 05:06:46;;;;;;;4.80;3.43;;;23.30;48.50;;;;;;5027290;28;20464;-88
2022/09/06 05:09:13;;;;;;;3.97;3.33;;;23.40;48.80;;;;;;5046370;28;20454;-88
2022/09/06 05:11:40;;;;;;;3.53;3.23;;;23.40;48.60;;;;;;5042711;28;20955;-88
2022/09/06 05:14:07;;;;;;;4.97;3.20;;;23.30;48.90;;;;;;5010698;28;20556;-90
2022/09/06 05:16:34;;;;;;;4.87;2.80;;;23.20;49.20;;;;;;5044631;28;20540;-88
2022/09/06 05:19:01;;;;;;;4.93;3.20;;;23.30;49.90;;;;;;5045647;28;20440;-88
2022/09/06 05:21:29;;;;;;;6.73;3.70;;;23.30;50.10;;;;;;5047093;28;20534;-88
2022/09/06 05:23:56;;;;;;;4.00;3.50;;;23.40;50.00;;;;;;5065055;28;20848;-90
2022/09/06 05:26:23;;;;;;;3.60;3.30;;;23.40;50.20;;;;;;5045677;28;20448;-89
2022/09/06 05:28:50;;;;;;;7.43;3.97;;;23.40;49.60;;;;;;5047856;28;20452;-92
2022/09/06 05:31:25;;;;;;;3.83;3.53;;;23.30;49.20;;;;;;5042545;28;20531;-89
2022/09/06 05:33:53;;;;;;;8.50;3.40;;;23.30;49.90;;;;;;5023705;28;20955;-92
2022/09/06 05:36:22;;;;;;;3.47;3.17;;;23.30;49.90;;;;;;5026851;28;20979;-89
2022/09/06 05:38:51;;;;;;;4.67;3.63;;;23.40;50.10;;;;;;5049165;28;20463;-90
2022/09/06 05:41:18;;;;;;;5.87;3.20;;;23.40;50.20;;;;;;5045151;28;20441;-89
2022/09/06 05:43:45;;;;;;;3.60;3.30;;;23.40;50.50;;;;;;5026696;28;20481;-88
2022/09/06 05:46:13;;;;;;;3.43;3.23;;;23.50;50.50;;;;;;5032172;28;20479;-89
2022/09/06 05:48:40;;;;;;;3.63;3.23;;;23.30;50.40;;;;;;5026728;28;20461;-89
2022/09/06 05:51:08;;;;;;;5.40;3.67;;;23.30;50.30;;;;;;5042726;28;21205;-89
2022/09/06 05:53:37;;;;;;;5.37;3.20;;;23.40;50.40;;;;;;5046169;28;20947;-90
2022/09/06 05:56:06;;;;;;;4.43;3.17;;;23.50;50.30;;;;;;5040384;28;20473;-88
2022/09/06 05:58:33;;;;;;;4.50;3.20;;;23.50;49.80;;;;;;5045106;28;20489;-90
2022/09/06 06:01:08;;;;;;;6.10;3.20;;;23.50;50.30;;;;;;5060937;28;20460;-90
2022/09/06 06:03:35;;;;;;;4.50;3.70;;;23.50;50.00;;;;;;5060765;28;20472;-90
2022/09/06 06:06:02;;;;;;;3.73;3.30;;;23.60;49.80;;;;;;5045806;28;20456;-90
2022/09/06 06:08:29;;;;;;;5.60;3.40;;;23.70;49.50;;;;;;5041970;28;20477;-90
2022/09/06 06:10:59;;;;;;;6.07;3.77;;;23.70;49.80;;;;;;5044400;28;20539;-89
2022/09/06 06:13:30;;;;;;;5.07;3.73;;;23.70;49.60;;;;;;5029633;28;20429;-90
2022/09/06 06:15:57;;;;;;;4.30;3.57;;;23.70;49.50;;;;;;5039659;28;20476;-90
2022/09/06 06:18:24;;;;;;;6.10;3.30;;;23.70;49.80;;;;;;5028558;28;20831;-87
2022/09/06 06:20:51;;;;;;;7.33;3.87;;;23.70;49.70;;;;;;5016179;28;20492;-90
2022/09/06 06:23:18;;;;;;;4.13;3.73;;;23.80;49.50;;;;;;5044765;28;20476;-90
2022/09/06 06:25:45;;;;;;;6.40;3.90;;;23.80;49.70;;;;;;5020888;28;20444;-89
2022/09/06 06:28:13;;;;;;;7.07;3.90;;;23.80;49.50;;;;;;5034408;28;20551;-90
2022/09/06 06:30:41;;;;;;;5.57;3.50;;;23.80;49.60;;;;;;5031713;28;21002;-90
2022/09/06 06:33:08;;;;;;;3.63;2.93;;;23.80;49.00;;;;;;5018616;28;20552;-91
2022/09/06 06:35:35;;;;;;;5.37;3.90;;;23.90;49.10;;;;;;5029067;28;20456;-88
2022/09/06 06:38:02;;;;;;;3.73;3.50;;;23.70;49.80;;;;;;5065546;28;20512;-89
2022/09/06 06:40:29;;;;;;;3.43;3.13;;;23.60;50.30;;;;;;5033778;28;20448;-90
2022/09/06 06:42:56;;;;;;;6.67;3.33;;;23.70;49.70;;;;;;5026545;28;20555;-88
2022/09/06 06:45:23;;;;;;;7.87;3.70;;;23.70;49.40;;;;;;5067402;28;20468;-89
2022/09/06 06:47:51;;;;;;;6.00;3.70;;;23.80;49.60;;;;;;5046231;28;20460;-89
2022/09/06 06:50:19;;;;;;;3.90;3.60;;;23.80;49.80;;;;;;5044789;28;21121;-89
2022/09/06 06:52:46;;;;;;;4.97;3.97;;;23.80;49.80;;;;;;5046493;28;21209;-89
2022/09/06 06:55:13;;;;;;;3.90;3.60;;;23.80;49.40;;;;;;5032821;28;21365;-88
2022/09/06 06:57:41;;;;;;;5.90;3.60;;;23.80;50.00;;;;;;5018879;28;20525;-89
2022/09/06 07:00:09;;;;;;;8.07;4.37;;;23.90;50.20;;;;;;5032311;28;20438;-90
2022/09/06 07:02:36;;;;;;;5.40;3.67;;;23.90;49.60;;;;;;5013708;28;20460;-89
2022/09/06 07:05:05;;;;;;;4.60;3.77;;;23.90;49.20;;;;;;5025679;28;20536;-89
2022/09/06 07:07:32;;;;;;;5.50;4.40;;;23.90;48.80;;;;;;5036157;28;20562;-89
2022/09/06 07:09:59;;;;;;;6.40;3.37;;;23.90;48.80;;;;;;5061817;28;20470;-89
2022/09/06 07:12:26;;;;;;;4.10;3.70;;;23.90;48.60;;;;;;5027405;28;20540;-89
2022/09/06 07:14:53;;;;;;;8.83;3.60;;;23.80;48.30;;;;;;5063356;28;20460;-89
2022/09/06 07:17:20;;;;;;;9.80;3.80;;;23.80;48.30;;;;;;5027279;28;20483;-91
2022/09/06 07:19:47;;;;;;;6.73;3.37;;;23.80;48.30;;;;;;5029440;28;20456;-88
2022/09/06 07:22:15;;;;;;;7.13;3.70;;;23.90;48.40;;;;;;5042983;28;20535;-88
2022/09/06 07:24:42;;;;;;;11.80;3.53;;;24.00;47.90;;;;;;5062530;28;21039;-90
2022/09/06 07:27:09;;;;;;;3.80;3.37;;;24.00;48.00;;;;;;5054874;28;20477;-90
2022/09/06 07:29:36;;;;;;;8.53;4.07;;;24.20;48.50;;;;;;5048101;28;20541;-90
2022/09/06 07:32:04;;;;;;;6.23;3.93;;;24.30;48.20;;;;;;5066346;28;20959;-90
2022/09/06 07:34:32;;;;;;;3.53;3.13;;;24.40;47.80;;;;;;5060030;28;20469;-90
2022/09/06 07:36:59;;;;;;;5.93;3.20;;;24.40;47.70;;;;;;5050663;28;20807;-90
2022/09/06 07:39:27;;;;;;;4.23;3.20;;;24.50;47.70;;;;;;5029786;28;20532;-89
2022/09/06 07:41:54;;;;;;;4.07;3.53;;;24.40;47.50;;;;;;5045268;28;20967;-89
2022/09/06 07:44:21;;;;;;;5.33;3.37;;;24.40;47.00;;;;;;5055875;28;20476;-90
2022/09/06 07:46:50;;;;;;;6.07;3.17;;;24.50;47.00;;;;;;5049728;28;21055;-89
2022/09/06 07:49:17;;;;;;;3.77;3.30;;;24.60;47.30;;;;;;5032539;28;20456;-90
2022/09/06 07:51:44;;;;;;;3.57;3.27;;;24.70;47.00;;;;;;5027365;28;20454;-90
2022/09/06 07:54:11;;;;;;;4.37;3.20;;;24.80;46.50;;;;;;5063362;28;21408;-89
2022/09/06 07:56:40;;;;;;;4.23;3.27;;;25.00;46.90;;;;;;5060413;28;20453;-88
2022/09/06 07:59:08;;;;;;;7.67;3.40;;;25.00;46.00;;;;;;5067066;28;21145;-88
2022/09/06 08:01:36;;;;;;;5.53;3.30;;;25.10;45.90;;;;;;5054838;28;20550;-89
2022/09/06 08:04:05;;;;;;;4.37;3.63;;;25.10;45.80;;;;;;5050081;28;20994;-89
2022/09/06 08:06:34;;;;;;;3.03;2.73;;;25.00;46.00;;;;;;5049925;28;20531;-88
2022/09/06 08:09:02;;;;;;;12.87;3.00;;;25.10;46.00;;;;;;5049282;28;20488;-90
2022/09/06 08:11:31;;;;;;;5.53;3.97;;;25.30;45.80;;;;;;5058591;28;20468;-89
2022/09/06 08:14:01;;;;;;;7.30;3.80;;;25.30;45.50;;;;;;5051705;28;20461;-87
2022/09/06 08:16:30;;;;;;;3.80;2.90;;;25.40;45.40;;;;;;5046591;28;20796;-90
2022/09/06 08:18:58;;;;;;;4.33;3.43;;;25.50;45.10;;;;;;5036577;28;20431;-89
2022/09/06 08:21:28;;;;;;;7.03;3.03;;;25.50;45.00;;;;;;5050300;28;20454;-89
2022/09/06 08:23:57;;;;;;;7.17;3.83;;;25.60;45.00;;;;;;5051171;28;20850;-87
2022/09/06 08:26:25;;;;;;;6.90;3.10;;;25.50;45.00;;;;;;5033817;28;20448;-90
2022/09/06 08:28:57;;;;;;;3.50;3.07;;;25.50;44.90;;;;;;5051769;28;20445;-90
2022/09/06 08:31:25;;;;;;;3.53;3.23;;;25.60;44.90;;;;;;5061826;28;20802;-89
2022/09/06 08:33:53;;;;;;;5.00;3.07;;;25.60;44.90;;;;;;5051936;28;20495;-90
2022/09/06 08:36:20;;;;;;;7.73;3.20;;;25.60;44.80;;;;;;5067056;28;20885;-90
2022/09/06 08:38:48;;;;;;;3.87;2.93;;;25.50;45.10;;;;;;5052524;28;20969;-88
2022/09/06 08:41:24;;;;;;;4.00;2.87;;;25.70;44.80;;;;;;5026654;28;20465;-90
2022/09/06 08:43:54;;;;;;;3.13;2.83;;;25.80;44.70;;;;;;5032671;28;20463;-90
2022/09/06 08:46:24;;;;;;;6.40;3.10;;;26.00;44.40;;;;;;5047876;28;20452;-90
2022/09/06 08:48:54;;;;;;;7.37;3.70;;;26.10;44.20;;;;;;5031930;28;20928;-89
2022/09/06 08:51:56;;;;;;;4.43;3.70;;;26.10;44.30;;;;;;5029969;28;20447;-90
2022/09/06 08:54:29;;;;;;;3.73;3.20;;;26.30;44.10;;;;;;5045640;28;20443;-88
2022/09/06 08:57:04;;;;;;;4.50;2.90;;;26.50;43.60;;;;;;5060333;28;20902;-89
2022/09/06 08:59:37;;;;;;;11.87;3.57;;;26.60;43.50;;;;;;5065195;28;20518;-89
2022/09/06 09:02:11;;;;;;;4.40;3.37;;;26.70;43.30;;;;;;5051306;28;20448;-90
2022/09/06 09:04:44;;;;;;;4.53;3.20;;;26.70;43.10;;;;;;5066869;28;20484;-89
2022/09/06 09:07:40;;;;;;;4.30;3.60;;;26.90;43.40;;;;;;5048574;28;20463;-88
2022/09/06 09:10:12;;;;;;;4.53;3.20;;;27.00;43.00;;;;;;5065588;28;20455;-89
2022/09/06 09:12:47;;;;;;;16.80;3.60;;;27.00;42.50;;;;;;5029787;28;20925;-88
2022/09/06 09:15:16;;;;;;;9.60;3.50;;;27.20;42.50;;;;;;5036807;28;20436;-90
2022/09/06 09:17:45;;;;;;;5.00;3.30;;;27.30;42.30;;;;;;5036707;28;20474;-85
2022/09/06 09:20:13;;;;;;;4.17;3.00;;;27.30;42.10;;;;;;5049171;28;20527;-87
2022/09/06 09:22:41;;;;;;;3.20;2.60;;;27.40;41.80;;;;;;5066962;28;21092;-89
2022/09/06 09:25:13;;;;;;;3.60;3.30;;;27.40;41.40;;;;;;5050587;28;20796;-87
2022/09/06 09:27:41;;;;;;;3.47;3.10;;;27.60;41.30;;;;;;5037346;28;20466;-86
2022/09/06 09:30:09;;;;;;;3.40;3.10;;;27.60;41.30;;;;;;5051755;28;20452;-87
2022/09/06 09:32:38;;;;;;;5.70;4.37;;;27.60;41.50;;;;;;5046878;28;20448;-88
2022/09/06 09:35:28;;;;;;;3.43;3.20;;;27.60;41.20;;;;;;5066686;28;20464;-87
2022/09/06 09:38:06;;;;;;;3.10;2.80;;;27.90;41.00;;;;;;5050247;28;20479;-87
2022/09/06 09:40:37;;;;;;;7.17;3.10;;;28.00;40.70;;;;;;5024093;28;20464;-87
2022/09/06 09:43:17;;;;;;;7.17;2.97;;;28.20;40.30;;;;;;5067107;28;20440;-88
2022/09/06 09:45:44;;;;;;;5.00;2.60;;;28.30;40.20;;;;;;5030474;28;20464;-87
2022/09/06 09:48:23;;;;;;;4.20;2.83;;;28.60;39.60;;;;;;5033774;28;20472;-89
2022/09/06 09:50:51;;;;;;;3.23;2.93;;;28.70;39.10;;;;;;5068716;28;20531;-87
2022/09/06 09:53:21;;;;;;;6.60;3.50;;;28.70;39.30;;;;;;5044224;28;20456;-88
2022/09/06 09:55:49;;;;;;;4.53;3.00;;;28.70;39.20;;;;;;5032845;28;20957;-89
2022/09/06 09:58:26;;;;;;;3.20;2.63;;;28.70;38.90;;;;;;5033156;28;20469;-89
2022/09/06 10:01:09;;;;;;;4.53;2.83;;;28.90;39.20;;;;;;5048490;28;20523;-89
2022/09/06 10:03:36;;;;;;;4.03;2.87;;;29.10;38.30;;;;;;5053038;28;20536;-87
2022/09/06 10:06:08;;;;;;;10.30;2.80;;;29.30;38.10;;;;;;5027310;28;20789;-87
2022/09/06 10:08:41;;;;;;;4.30;2.90;;;29.60;37.40;;;;;;5069616;28;20585;-87
2022/09/06 10:11:12;;;;;;;3.07;2.63;;;29.80;36.50;;;;;;5048575;28;20968;-88
2022/09/06 10:13:40;;;;;;;3.07;2.77;;;30.10;36.90;;;;;;5036360;28;20455;-89
2022/09/06 10:16:07;;;;;;;6.50;2.90;;;30.10;36.20;;;;;;5034570;28;20433;-91
2022/09/06 10:18:36;;;;;;;2.93;2.70;;;30.10;35.90;;;;;;5031342;28;20468;-88
2022/09/06 10:21:06;;;;;;;3.27;2.80;;;30.20;36.50;;;;;;5049074;28;20453;-88
2022/09/06 10:23:44;;;;;;;6.80;2.90;;;30.20;35.60;;;;;;5026687;28;20461;-86
2022/09/06 10:26:20;;;;;;;4.73;2.70;;;30.00;36.00;;;;;;5033938;28;20944;-88
2022/09/06 10:28:51;;;;;;;2.87;2.67;;;30.20;35.90;;;;;;5032882;28;20474;-87
2022/09/06 10:31:54;;;;;;;2.80;2.60;;;30.50;35.80;;;;;;5032938;28;20523;-87
2022/09/06 10:34:52;;;;;;;4.90;2.80;;;30.60;35.50;;;;;;5056201;28;20447;-87
2022/09/06 10:37:40;;;;;;;3.53;3.23;;;30.90;35.20;;;;;;5034206;28;20460;-88
2022/09/06 10:40:09;;;;;;;3.10;2.90;;;31.00;34.70;;;;;;5051513;28;20448;-87
2022/09/06 10:42:43;;;;;;;3.53;2.63;;;31.30;34.60;;;;;;5046639;28;20449;-88
2022/09/06 10:45:23;;;;;;;2.57;2.37;;;31.40;34.70;;;;;;5047517;28;20487;-88
2022/09/06 10:47:59;;;;;;;6.00;2.70;;;31.50;33.50;;;;;;5027957;28;20468;-88
2022/09/06 10:50:36;;;;;;;4.80;2.80;;;31.70;33.70;;;;;;5044450;28;20511;-88
2022/09/06 10:53:10;;;;;;;5.43;2.37;;;31.70;33.70;;;;;;5031772;28;20476;-88
2022/09/06 10:55:40;;;;;;;3.67;2.80;;;31.80;33.40;;;;;;5016148;28;20466;-88
2022/09/06 10:58:11;;;;;;;3.23;2.77;;;32.00;33.40;;;;;;5030653;28;20465;-88
2022/09/06 11:00:45;;;;;;;3.80;2.50;;;32.10;32.30;;;;;;5017663;28;20536;-89
2022/09/06 11:03:19;;;;;;;6.43;2.27;;;31.80;32.60;;;;;;5065180;28;20531;-90
2022/09/06 11:05:51;;;;;;;2.73;2.53;;;32.00;33.00;;;;;;5067108;28;20522;-88
2022/09/06 11:08:25;;;;;;;4.33;2.97;;;32.40;32.40;;;;;;5035463;28;20468;-87
2022/09/06 11:10:54;;;;;;;2.33;2.17;;;32.50;31.90;;;;;;5044563;28;20929;-90
2022/09/06 11:13:24;;;;;;;3.03;2.83;;;32.60;31.70;;;;;;5009814;28;20499;-89
2022/09/06 11:15:57;;;;;;;2.50;2.30;;;32.50;31.90;;;;;;5010439;28;20964;-90
2022/09/06 11:18:31;;;;;;;5.63;2.57;;;32.60;31.60;;;;;;5030315;28;20556;-88
2022/09/06 11:21:26;;;;;;;2.77;2.57;;;32.70;31.90;;;;;;5034145;28;20456;-89
2022/09/06 11:24:03;;;;;;;4.23;2.60;;;33.00;31.20;;;;;;5027068;28;20469;-89
2022/09/06 11:26:43;;;;;;;2.73;2.40;;;33.00;30.70;;;;;;5036260;28;20543;-89
2022/09/06 11:29:18;;;;;;;2.50;2.33;;;33.20;30.90;;;;;;5033741;28;20482;-90
2022/09/06 11:31:54;;;;;;;3.43;2.30;;;33.50;30.20;;;;;;5042176;28;20467;-88
2022/09/06 11:34:25;;;;;;;3.03;2.73;;;33.80;29.80;;;;;;5045995;28;20433;-88
2022/09/06 11:36:55;;;;;;;2.37;2.23;;;33.90;29.50;;;;;;5052672;28;20468;-90
2022/09/06 11:39:30;;;;;;;2.63;2.03;;;33.50;30.00;;;;;;5064509;28;20483;-91
2022/09/06 11:41:57;;;;;;;2.60;2.07;;;33.70;29.60;;;;;;5030046;28;20463;-86
2022/09/06 11:44:53;;;;;;;2.80;1.80;;;33.00;28.90;;;;;;5033811;28;20463;-90
2022/09/06 11:47:35;;;;;;;4.70;2.40;;;33.00;29.90;;;;;;5016067;28;20473;-91
2022/09/06 11:50:59;;;;;;;2.27;2.10;;;33.30;29.50;;;;;;5037920;28;20445;-91
2022/09/06 11:53:29;;;;;;;2.53;2.07;;;33.70;29.50;;;;;;5052368;28;20463;-89
2022/09/06 11:56:22;;;;;;;2.03;1.73;;;33.70;28.10;;;;;;5036440;28;20457;-88
2022/09/06 11:58:55;;;;;;;3.00;1.80;;;33.90;28.50;;;;;;5048224;28;20555;-87
2022/09/06 12:01:37;;;;;;;5.00;1.90;;;34.20;28.50;;;;;;5035531;28;20460;-88
2022/09/06 12:04:07;;;;;;;2.60;2.40;;;34.40;28.50;;;;;;5050329;28;21456;-89
2022/09/06 12:06:38;;;;;;;2.20;2.00;;;34.50;28.10;;;;;;5053341;28;20461;-90
2022/09/06 12:09:27;;;;;;;2.10;2.00;;;34.70;27.90;;;;;;5052306;28;20452;-89
2022/09/06 12:11:57;;;;;;;2.60;2.40;;;34.70;27.60;;;;;;5024679;28;21027;-88
2022/09/06 12:14:33;;;;;;;2.60;2.07;;;34.80;27.20;;;;;;5069712;28;20546;-88
2022/09/06 12:17:27;;;;;;;1.80;1.70;;;34.60;26.60;;;;;;5047418;28;20979;-90
2022/09/06 12:20:05;;;;;;;6.83;2.43;;;34.90;27.10;;;;;;5058949;28;21081;-90
2022/09/06 12:23:03;;;;;;;2.20;2.00;;;34.80;27.10;;;;;;5068221;28;20527;-89
2022/09/06 12:25:51;;;;;;;4.20;1.90;;;34.90;27.80;;;;;;5068269;28;21085;-87
2022/09/06 12:28:26;;;;;;;2.40;2.20;;;35.10;27.20;;;;;;5025693;28;21003;-90
2022/09/06 12:30:53;;;;;;;4.53;2.00;;;35.40;26.90;;;;;;5044832;28;20454;-88
2022/09/06 12:33:25;;;;;;;1.70;1.40;;;35.50;26.90;;;;;;5037805;28;20963;-88
2022/09/06 12:35:52;;;;;;;1.47;1.37;;;35.50;25.10;;;;;;5062313;28;20787;-88
2022/09/06 12:38:23;;;;;;;1.90;1.30;;;35.50;24.70;;;;;;5060732;28;20478;-88
2022/09/06 12:40:56;;;;;;;1.50;1.40;;;35.60;24.10;;;;;;5044467;28;21874;-89
2022/09/06 12:43:25;;;;;;;1.83;1.73;;;35.70;24.20;;;;;;5041846;28;21262;-88
2022/09/06 12:45:53;;;;;;;1.20;1.10;;;35.60;24.20;;;;;;5034408;28;20882;-87
2022/09/06 12:48:28;;;;;;;1.93;1.53;;;35.50;23.80;;;;;;5041797;28;20460;-88
2022/09/06 12:51:02;;;;;;;1.70;1.60;;;35.40;24.40;;;;;;5036384;28;20448;-88
2022/09/06 12:53:30;;;;;;;1.67;1.57;;;35.60;25.40;;;;;;5030632;28;20444;-88
2022/09/06 12:56:06;;;;;;;2.17;1.53;;;35.70;24.40;;;;;;5012255;28;20864;-87
2022/09/06 12:58:35;;;;;;;2.70;1.43;;;35.80;24.20;;;;;;5059948;28;20468;-88
2022/09/06 13:01:09;;;;;;;2.43;1.60;;;36.10;24.30;;;;;;5062126;28;20450;-87
2022/09/06 13:03:40;;;;;;;3.97;1.77;;;36.40;24.50;;;;;;5043286;28;20514;-87
2022/09/06 13:06:10;;;;;;;1.70;1.60;;;36.40;24.90;;;;;;5038983;28;20741;-88